createdAt,value
2024-05-09T00:00:31.665Z,25.30
2024-05-09T00:01:29.309Z,25.20
2024-05-09T00:02:28.303Z,26.10
2024-05-09T00:03:28.280Z,26.00
2024-05-09T00:04:28.302Z,25.60
2024-05-09T00:05:28.313Z,25.70
2024-05-09T00:06:28.220Z,26.10
2024-05-09T00:07:28.237Z,25.10
2024-05-09T00:08:28.305Z,24.80
2024-05-09T00:09:28.198Z,25.80
2024-05-09T00:10:35.358Z,24.20
2024-05-09T00:11:29.260Z,26.30
2024-05-09T00:12:28.183Z,24.00
2024-05-09T00:13:28.138Z,24.90
2024-05-09T00:14:28.149Z,25.40
2024-05-09T00:15:28.117Z,24.90
2024-05-09T00:16:28.107Z,25.10
2024-05-09T00:17:28.278Z,26.20
2024-05-09T00:18:28.263Z,27.30
2024-05-09T00:19:28.199Z,25.20
2024-05-09T00:20:36.227Z,25.80
2024-05-09T00:21:29.070Z,25.30
2024-05-09T00:22:28.090Z,24.60
2024-05-09T00:23:28.374Z,24.70
2024-05-09T00:24:28.115Z,24.70
2024-05-09T00:25:28.019Z,25.10
2024-05-09T00:26:28.164Z,26.10
2024-05-09T00:27:27.995Z,25.70
2024-05-09T00:28:28.027Z,26.10
2024-05-09T00:29:28.075Z,25.80
2024-05-09T00:30:33.953Z,26.80
2024-05-09T00:31:28.988Z,27.70
2024-05-09T00:32:28.065Z,26.10
2024-05-09T00:33:28.195Z,26.00
2024-05-09T00:34:28.160Z,26.90
2024-05-09T00:35:28.031Z,26.90
2024-05-09T00:36:28.296Z,26.50
2024-05-09T00:37:27.884Z,27.50
2024-05-09T00:38:27.894Z,28.30
2024-05-09T00:39:27.925Z,27.20
2024-05-09T00:40:37.245Z,25.80
2024-05-09T00:41:28.902Z,27.90
2024-05-09T00:42:27.822Z,27.10
2024-05-09T00:43:27.815Z,26.40
2024-05-09T00:44:27.864Z,27.50
2024-05-09T00:45:27.983Z,28.80
2024-05-09T00:46:27.820Z,27.60
2024-05-09T00:47:27.922Z,28.10
2024-05-09T00:48:27.951Z,29.00
2024-05-09T00:49:27.902Z,28.70
2024-05-09T00:50:35.555Z,28.70
2024-05-09T00:51:28.724Z,28.60
2024-05-09T00:52:27.707Z,28.40
2024-05-09T00:53:27.782Z,29.00
2024-05-09T00:54:27.715Z,28.20
2024-05-09T00:55:27.683Z,29.70
2024-05-09T00:56:27.709Z,29.50
2024-05-09T00:57:27.666Z,30.10
2024-05-09T00:58:27.651Z,29.40
2024-05-09T00:59:27.692Z,30.20
2024-05-09T01:00:35.664Z,30.30
2024-05-09T01:01:28.674Z,30.10
2024-05-09T01:02:27.710Z,31.10
2024-05-09T01:03:28.084Z,30.20
2024-05-09T01:04:27.670Z,29.20
2024-05-09T01:05:27.622Z,29.70
2024-05-09T01:06:27.559Z,28.10
2024-05-09T01:07:27.554Z,29.10
2024-05-09T01:08:27.628Z,29.00
2024-05-09T01:09:27.525Z,28.30
2024-05-09T01:10:32.311Z,29.10
2024-05-09T01:11:28.586Z,29.10
2024-05-09T01:12:27.746Z,31.10
2024-05-09T01:13:27.519Z,30.00
2024-05-09T01:14:27.558Z,30.10
2024-05-09T01:15:27.535Z,30.10
2024-05-09T01:16:27.597Z,29.90
2024-05-09T01:17:27.820Z,31.00
2024-05-09T01:18:27.936Z,30.80
2024-05-09T01:19:27.830Z,30.60
2024-05-09T01:20:37.031Z,29.70
2024-05-09T01:21:28.389Z,30.30
2024-05-09T01:22:27.477Z,30.60
2024-05-09T01:23:27.415Z,30.70
2024-05-09T01:24:27.372Z,29.90
2024-05-09T01:25:27.369Z,30.70
2024-05-09T01:26:27.479Z,30.90
2024-05-09T01:27:27.378Z,30.60
2024-05-09T01:28:27.324Z,30.60
2024-05-09T01:29:27.395Z,30.90
2024-05-09T01:30:33.956Z,30.30
2024-05-09T01:31:28.324Z,30.30
2024-05-09T01:32:27.481Z,30.90
2024-05-09T01:33:27.658Z,32.10
2024-05-09T01:34:27.271Z,31.60
2024-05-09T01:35:27.294Z,31.90
2024-05-09T01:36:27.241Z,32.30
2024-05-09T01:37:27.241Z,30.90
2024-05-09T01:38:27.258Z,31.60
2024-05-09T01:39:27.250Z,31.40
2024-05-09T01:40:36.357Z,31.90
2024-05-09T01:41:28.311Z,33.30
2024-05-09T01:42:27.168Z,32.40
2024-05-09T01:43:27.162Z,30.40
2024-05-09T01:44:27.322Z,32.10
2024-05-09T01:45:27.151Z,32.00
2024-05-09T01:46:27.138Z,34.00
2024-05-09T01:47:27.337Z,31.60
2024-05-09T01:48:27.185Z,32.20
2024-05-09T01:49:27.205Z,31.50
2024-05-09T01:51:27.088Z,32.40
2024-05-09T01:52:27.071Z,33.40
2024-05-09T01:53:27.075Z,32.50
2024-05-09T01:54:27.064Z,33.20
2024-05-09T01:55:27.069Z,33.60
2024-05-09T01:56:27.093Z,34.30
2024-05-09T01:57:27.013Z,33.10
2024-05-09T01:58:27.006Z,32.20
2024-05-09T01:59:27.186Z,34.20
2024-05-09T02:00:36.352Z,34.70
2024-05-09T02:01:28.023Z,32.80
2024-05-09T02:02:27.009Z,33.30
2024-05-09T02:03:27.106Z,33.60
2024-05-09T02:04:27.128Z,33.80
2024-05-09T02:05:27.047Z,33.20
2024-05-09T02:06:26.932Z,33.30
2024-05-09T02:07:26.910Z,34.70
2024-05-09T02:08:26.926Z,34.80
2024-05-09T02:09:26.896Z,36.00
2024-05-09T02:10:32.330Z,35.00
2024-05-09T02:11:27.947Z,34.50
2024-05-09T02:12:26.900Z,34.30
2024-05-09T02:13:26.855Z,33.80
2024-05-09T02:14:26.976Z,33.80
2024-05-09T02:15:26.862Z,33.20
2024-05-09T02:16:26.840Z,34.80
2024-05-09T02:17:27.012Z,35.10
2024-05-09T02:18:26.883Z,35.00
2024-05-09T02:19:26.910Z,36.50
2024-05-09T02:20:33.150Z,34.50
2024-05-09T02:21:27.787Z,34.50
2024-05-09T02:22:26.764Z,35.10
2024-05-09T02:23:26.812Z,34.90
2024-05-09T02:24:26.748Z,33.50
2024-05-09T02:25:26.727Z,33.80
2024-05-09T02:26:26.800Z,32.10
2024-05-09T02:27:26.803Z,33.20
2024-05-09T02:28:26.686Z,34.00
2024-05-09T02:29:26.847Z,32.70
2024-05-09T02:30:36.535Z,33.70
2024-05-09T02:31:27.645Z,32.20
2024-05-09T02:32:26.861Z,32.30
2024-05-09T02:33:26.852Z,34.90
2024-05-09T02:34:26.696Z,34.10
2024-05-09T02:35:26.780Z,35.20
2024-05-09T02:36:26.670Z,35.00
2024-05-09T02:37:26.603Z,34.30
2024-05-09T02:38:26.627Z,35.10
2024-05-09T02:39:26.573Z,35.60
2024-05-09T02:40:35.539Z,35.80
2024-05-09T02:41:27.659Z,36.00
2024-05-09T02:42:26.533Z,34.50
2024-05-09T02:43:26.537Z,35.60
2024-05-09T02:44:26.700Z,35.50
2024-05-09T02:45:26.522Z,34.20
2024-05-09T02:46:26.543Z,33.50
2024-05-09T02:47:26.711Z,34.10
2024-05-09T02:48:26.650Z,32.30
2024-05-09T02:49:26.575Z,33.70
2024-05-09T02:50:34.254Z,34.60
2024-05-09T02:51:27.460Z,36.50
2024-05-09T02:52:26.436Z,34.40
2024-05-09T02:53:26.455Z,34.20
2024-05-09T02:54:26.404Z,35.20
2024-05-09T02:55:26.402Z,35.50
2024-05-09T02:56:26.467Z,35.10
2024-05-09T02:57:26.369Z,34.50
2024-05-09T02:58:26.374Z,36.50
2024-05-09T02:59:26.442Z,36.60
2024-05-09T03:00:34.736Z,36.40
2024-05-09T03:01:27.346Z,36.30
2024-05-09T03:02:26.413Z,35.10
2024-05-09T03:03:26.822Z,35.10
2024-05-09T03:04:26.405Z,35.00
2024-05-09T03:05:26.344Z,35.20
2024-05-09T03:06:26.270Z,36.20
2024-05-09T03:07:26.258Z,34.80
2024-05-09T03:08:26.274Z,35.10
2024-05-09T03:09:26.246Z,36.30
2024-05-09T03:10:28.988Z,35.50
2024-05-09T03:11:27.325Z,35.90
2024-05-09T03:12:26.272Z,34.10
2024-05-09T03:13:26.230Z,34.90
2024-05-09T03:14:26.301Z,33.50
2024-05-09T03:15:26.182Z,32.20
2024-05-09T03:16:26.180Z,33.00
2024-05-09T03:17:26.304Z,34.00
2024-05-09T03:18:26.223Z,32.70
2024-05-09T03:19:26.304Z,32.50
2024-05-09T03:20:32.578Z,32.50
2024-05-09T03:21:27.114Z,32.60
2024-05-09T03:22:26.114Z,33.20
2024-05-09T03:23:26.195Z,32.50
2024-05-09T03:24:26.085Z,34.40
2024-05-09T03:25:26.064Z,34.90
2024-05-09T03:26:26.169Z,34.40
2024-05-09T03:27:26.044Z,34.50
2024-05-09T03:28:26.158Z,33.70
2024-05-09T03:29:26.132Z,33.70
2024-05-09T03:30:35.626Z,33.70
2024-05-09T03:31:26.998Z,33.70
2024-05-09T03:32:26.122Z,33.10
2024-05-09T03:33:26.443Z,34.20
2024-05-09T03:34:26.022Z,35.00
2024-05-09T03:35:26.053Z,34.10
2024-05-09T03:36:25.951Z,35.70
2024-05-09T03:37:25.992Z,35.10
2024-05-09T03:38:25.972Z,35.30
2024-05-09T03:39:25.914Z,36.80
2024-05-09T03:40:29.038Z,36.00
2024-05-09T03:41:25.945Z,36.40
2024-05-09T03:42:25.907Z,36.30
2024-05-09T03:43:25.878Z,36.10
2024-05-09T03:44:25.984Z,35.50
2024-05-09T03:45:25.859Z,35.10
2024-05-09T03:46:25.863Z,35.60
2024-05-09T03:47:26.094Z,36.40
2024-05-09T03:48:26.083Z,35.40
2024-05-09T03:49:26.069Z,35.00
2024-05-09T03:50:30.623Z,36.20
2024-05-09T03:51:26.794Z,35.90
2024-05-09T03:52:25.774Z,35.90
2024-05-09T03:53:25.806Z,35.10
2024-05-09T03:54:25.763Z,35.40
2024-05-09T03:55:25.748Z,34.60
2024-05-09T03:56:25.799Z,34.10
2024-05-09T03:57:25.718Z,34.20
2024-05-09T03:58:25.721Z,35.60
2024-05-09T03:59:25.854Z,34.70
2024-05-09T04:00:34.238Z,34.20
2024-05-09T04:01:26.828Z,33.40
2024-05-09T04:02:25.777Z,34.50
2024-05-09T04:03:25.985Z,33.60
2024-05-09T04:04:25.725Z,33.10
2024-05-09T04:05:25.768Z,35.30
2024-05-09T04:06:25.634Z,32.90
2024-05-09T04:07:25.647Z,32.20
2024-05-09T04:08:25.720Z,32.70
2024-05-09T04:09:25.603Z,32.40
2024-05-09T04:10:32.340Z,33.50
2024-05-09T04:11:26.782Z,33.30
2024-05-09T04:12:25.607Z,33.00
2024-05-09T04:13:25.739Z,33.20
2024-05-09T04:14:25.621Z,32.30
2024-05-09T04:15:25.550Z,31.40
2024-05-09T04:16:25.529Z,31.80
2024-05-09T04:17:25.601Z,32.10
2024-05-09T04:18:25.559Z,32.00
2024-05-09T04:19:25.636Z,32.20
2024-05-09T04:20:35.964Z,32.10
2024-05-09T04:21:26.468Z,32.90
2024-05-09T04:22:25.455Z,33.40
2024-05-09T04:23:25.470Z,33.30
2024-05-09T04:24:25.445Z,33.50
2024-05-09T04:25:25.422Z,34.30
2024-05-09T04:26:25.453Z,33.20
2024-05-09T04:27:25.394Z,34.80
2024-05-09T04:28:25.410Z,33.90
2024-05-09T04:29:25.548Z,32.90
2024-05-09T04:30:34.614Z,33.70
2024-05-09T04:31:26.361Z,33.30
2024-05-09T04:32:25.514Z,33.00
2024-05-09T04:33:25.880Z,34.10
2024-05-09T04:34:25.393Z,35.20
2024-05-09T04:35:25.573Z,33.80
2024-05-09T04:36:25.305Z,33.70
2024-05-09T04:37:25.289Z,34.30
2024-05-09T04:38:25.415Z,34.00
2024-05-09T04:39:25.271Z,33.10
2024-05-09T04:40:32.861Z,35.40
2024-05-09T04:41:26.387Z,35.50
2024-05-09T04:42:25.236Z,36.90
2024-05-09T04:43:25.247Z,36.10
2024-05-09T04:44:25.317Z,36.30
2024-05-09T04:45:25.205Z,36.00
2024-05-09T04:46:25.203Z,37.60
2024-05-09T04:47:25.355Z,37.10
2024-05-09T04:48:25.318Z,37.00
2024-05-09T04:49:25.302Z,37.50
2024-05-09T04:50:33.467Z,37.90
2024-05-09T04:51:26.147Z,36.30
2024-05-09T04:52:25.146Z,37.70
2024-05-09T04:53:25.161Z,37.10
2024-05-09T04:54:33.822Z,37.50
2024-05-09T04:55:26.099Z,38.60
2024-05-09T04:56:25.131Z,37.40
2024-05-09T04:57:25.100Z,37.10
2024-05-09T04:58:25.066Z,37.30
2024-05-09T04:59:25.251Z,37.10
2024-05-09T05:00:34.154Z,37.00
2024-05-09T05:01:26.083Z,37.10
2024-05-09T05:02:25.171Z,37.20
2024-05-09T05:03:25.290Z,37.70
2024-05-09T05:04:25.080Z,38.80
2024-05-09T05:05:25.017Z,36.40
2024-05-09T05:06:25.016Z,37.20
2024-05-09T05:07:24.972Z,38.20
2024-05-09T05:08:25.048Z,36.90
2024-05-09T05:09:24.947Z,37.20
2024-05-09T05:10:33.077Z,37.80
2024-05-09T05:11:26.045Z,36.70
2024-05-09T05:12:25.164Z,36.90
2024-05-09T05:13:25.350Z,37.10
2024-05-09T05:14:25.002Z,36.10
2024-05-09T05:15:24.890Z,37.50
2024-05-09T05:16:24.860Z,37.40
2024-05-09T05:17:25.016Z,37.30
2024-05-09T05:18:25.059Z,37.80
2024-05-09T05:19:24.950Z,38.40
2024-05-09T05:20:32.557Z,37.60
2024-05-09T05:21:26.133Z,39.80
2024-05-09T05:22:24.803Z,38.20
2024-05-09T05:23:24.932Z,39.80
2024-05-09T05:24:24.781Z,37.30
2024-05-09T05:25:24.795Z,37.10
2024-05-09T05:26:24.831Z,36.90
2024-05-09T05:27:24.914Z,36.90
2024-05-09T05:28:24.759Z,38.90
2024-05-09T05:29:24.830Z,38.00
2024-05-09T05:30:28.844Z,36.10
2024-05-09T05:31:25.768Z,37.10
2024-05-09T05:32:24.909Z,37.90
2024-05-09T05:33:24.740Z,36.20
2024-05-09T05:34:24.752Z,38.10
2024-05-09T05:35:24.814Z,37.80
2024-05-09T05:36:24.680Z,37.10
2024-05-09T05:37:24.642Z,37.40
2024-05-09T05:38:27.513Z,36.30
2024-05-09T05:39:24.630Z,38.80
2024-05-09T05:40:32.948Z,36.50
2024-05-09T05:41:25.663Z,37.90
2024-05-09T05:42:24.595Z,36.20
2024-05-09T05:43:24.627Z,37.30
2024-05-09T05:44:24.666Z,37.80
2024-05-09T05:45:24.557Z,35.80
2024-05-09T05:46:24.566Z,38.70
2024-05-09T05:47:24.917Z,37.10
2024-05-09T05:48:24.676Z,35.80
2024-05-09T05:49:24.679Z,36.10
2024-05-09T05:50:32.363Z,36.80
2024-05-09T05:51:25.532Z,37.30
2024-05-09T05:52:24.476Z,35.50
2024-05-09T05:53:25.257Z,36.90
2024-05-09T05:54:24.472Z,38.40
2024-05-09T05:55:24.454Z,38.10
2024-05-09T05:56:24.526Z,33.80
2024-05-09T05:57:24.435Z,36.80
2024-05-09T05:58:24.432Z,37.60
2024-05-09T05:59:24.442Z,36.50
2024-05-09T06:00:30.085Z,36.10
2024-05-09T06:01:25.399Z,36.20
2024-05-09T06:02:24.500Z,35.00
2024-05-09T06:03:24.392Z,34.90
2024-05-09T06:04:24.391Z,35.30
2024-05-09T06:05:27.237Z,32.70
2024-05-09T06:06:24.327Z,33.00
2024-05-09T06:07:24.336Z,34.80
2024-05-09T06:08:27.109Z,33.00
2024-05-09T06:09:24.294Z,31.10
2024-05-09T06:10:29.686Z,32.40
2024-05-09T06:11:25.500Z,32.30
2024-05-09T06:12:24.381Z,32.20
2024-05-09T06:13:24.264Z,33.00
2024-05-09T06:14:24.364Z,31.20
2024-05-09T06:15:24.231Z,29.00
2024-05-09T06:16:24.252Z,30.30
2024-05-09T06:17:24.474Z,30.10
2024-05-09T06:18:24.566Z,27.80
2024-05-09T06:19:24.436Z,29.80
2024-05-09T06:20:33.621Z,32.90
2024-05-09T06:21:25.226Z,34.20
2024-05-09T06:22:24.154Z,32.40
2024-05-09T06:23:24.160Z,32.00
2024-05-09T06:24:24.142Z,31.80
2024-05-09T06:25:24.153Z,31.20
2024-05-09T06:26:24.232Z,31.40
2024-05-09T06:27:24.099Z,31.60
2024-05-09T06:28:24.104Z,31.80
2024-05-09T06:29:24.201Z,30.00
2024-05-09T06:30:30.775Z,30.90
2024-05-09T06:31:25.083Z,30.50
2024-05-09T06:32:24.223Z,29.20
2024-05-09T06:33:24.235Z,29.40
2024-05-09T06:34:24.119Z,30.50
2024-05-09T06:35:24.041Z,30.40
2024-05-09T06:36:24.022Z,30.10
2024-05-09T06:37:23.997Z,29.70
2024-05-09T06:38:24.017Z,29.90
2024-05-09T06:39:24.002Z,29.10
2024-05-09T06:40:29.270Z,28.40
2024-05-09T06:41:24.975Z,27.30
2024-05-09T06:42:24.051Z,28.00
2024-05-09T06:43:23.919Z,28.20
2024-05-09T06:44:23.964Z,27.10
2024-05-09T06:45:23.900Z,28.50
2024-05-09T06:46:23.922Z,27.30
2024-05-09T06:47:24.125Z,27.00
2024-05-09T06:48:24.098Z,27.50
2024-05-09T06:49:24.001Z,25.10
2024-05-09T06:50:27.914Z,27.10
2024-05-09T06:51:24.874Z,25.40
2024-05-09T06:52:23.831Z,25.50
2024-05-09T06:53:23.958Z,25.40
2024-05-09T06:54:23.818Z,25.60
2024-05-09T06:55:23.790Z,25.90
2024-05-09T06:56:23.832Z,25.00
2024-05-09T06:57:23.767Z,25.00
2024-05-09T06:58:23.776Z,25.40
2024-05-09T06:59:23.798Z,24.70
2024-05-09T07:00:30.743Z,24.10
2024-05-09T07:01:24.760Z,26.10
2024-05-09T07:02:23.830Z,25.60
2024-05-09T07:03:23.892Z,24.00
2024-05-09T07:04:23.757Z,25.20
2024-05-09T07:05:23.862Z,24.20
2024-05-09T07:06:23.678Z,24.10
2024-05-09T07:07:23.693Z,25.00
2024-05-09T07:08:23.752Z,24.50
2024-05-09T07:09:23.667Z,23.80
2024-05-09T07:10:29.028Z,24.20
2024-05-09T07:11:24.703Z,23.20
2024-05-09T07:12:23.723Z,24.10
2024-05-09T07:13:23.611Z,23.20
2024-05-09T07:14:23.640Z,24.20
2024-05-09T07:15:23.593Z,25.10
2024-05-09T07:16:23.579Z,23.70
2024-05-09T07:17:23.807Z,24.60
2024-05-09T07:18:23.761Z,24.40
2024-05-09T07:19:23.683Z,24.90
2024-05-09T07:20:32.146Z,25.00
2024-05-09T07:21:24.560Z,23.90
2024-05-09T07:22:23.536Z,25.10
2024-05-09T07:23:23.520Z,25.40
2024-05-09T07:24:23.492Z,24.80
2024-05-09T07:25:23.481Z,25.00
2024-05-09T07:26:23.573Z,25.50
2024-05-09T07:27:23.464Z,25.80
2024-05-09T07:28:23.456Z,25.90
2024-05-09T07:29:23.461Z,27.10
2024-05-09T07:30:30.560Z,25.80
2024-05-09T07:31:24.459Z,25.10
2024-05-09T07:32:23.524Z,25.80
2024-05-09T07:33:24.483Z,25.10
2024-05-09T07:34:23.611Z,25.40
2024-05-09T07:35:23.486Z,24.30
2024-05-09T07:36:23.365Z,26.10
2024-05-09T07:37:23.390Z,26.90
2024-05-09T07:38:23.446Z,25.20
2024-05-09T07:39:23.342Z,26.10
2024-05-09T07:40:32.455Z,26.20
2024-05-09T07:41:24.437Z,25.30
2024-05-09T07:42:23.308Z,26.00
2024-05-09T07:43:23.298Z,27.00
2024-05-09T07:44:23.429Z,25.50
2024-05-09T07:45:41.679Z,27.00
2024-05-09T07:47:17.306Z,25.80
2024-05-09T07:48:56.830Z,25.10
2024-05-09T07:53:30.373Z,25.80
2024-05-09T07:54:23.396Z,26.60
2024-05-09T07:55:23.335Z,26.50
2024-05-09T07:56:24.307Z,27.00
2024-05-09T07:57:23.199Z,27.20
2024-05-09T07:58:23.157Z,27.30
2024-05-09T07:59:23.149Z,27.00
2024-05-09T08:00:29.757Z,26.90
2024-05-09T08:01:24.443Z,27.00
2024-05-09T08:02:23.271Z,27.40
2024-05-09T08:03:23.488Z,27.60
2024-05-09T08:04:25.242Z,28.30
2024-05-09T08:05:23.164Z,28.00
2024-05-09T08:06:23.054Z,27.90
2024-05-09T08:07:23.157Z,27.50
2024-05-09T08:08:23.116Z,27.80
2024-05-09T08:09:23.024Z,28.90
2024-05-09T08:10:28.443Z,28.90
2024-05-09T08:11:24.210Z,28.80
2024-05-09T08:12:23.005Z,29.30
2024-05-09T08:13:23.283Z,28.30
2024-05-09T08:14:22.966Z,28.90
2024-05-09T08:15:22.968Z,29.40
2024-05-09T08:16:23.150Z,29.90
2024-05-09T08:17:23.069Z,28.30
2024-05-09T08:18:22.994Z,28.30
2024-05-09T08:19:23.022Z,28.20
2024-05-09T08:20:30.681Z,28.40
2024-05-09T08:21:23.903Z,28.50
2024-05-09T08:22:22.937Z,27.80
2024-05-09T08:23:22.880Z,28.70
2024-05-09T08:24:22.867Z,27.10
2024-05-09T08:25:22.895Z,28.40
2024-05-09T08:26:22.919Z,27.40
2024-05-09T08:27:22.853Z,27.30
2024-05-09T08:28:22.899Z,28.20
2024-05-09T08:29:22.820Z,28.30
2024-05-09T08:30:29.806Z,28.40
2024-05-09T08:31:23.863Z,28.60
2024-05-09T08:32:22.810Z,28.20
2024-05-09T08:33:22.942Z,27.30
2024-05-09T08:34:22.906Z,27.50
2024-05-09T08:35:22.762Z,27.70
2024-05-09T08:36:22.759Z,28.10
2024-05-09T08:37:26.059Z,27.90
2024-05-09T08:38:23.744Z,28.30
2024-05-09T08:39:22.747Z,27.20
2024-05-09T08:40:30.694Z,27.20
2024-05-09T08:41:23.709Z,26.80
2024-05-09T08:42:22.672Z,26.70
2024-05-09T08:43:22.978Z,26.90
2024-05-09T08:44:22.887Z,26.60
2024-05-09T08:45:22.735Z,25.90
2024-05-09T08:46:22.947Z,25.40
2024-05-09T08:47:22.806Z,24.90
2024-05-09T08:48:22.980Z,23.90
2024-05-09T08:49:22.857Z,23.50
2024-05-09T08:50:31.786Z,25.50
2024-05-09T08:51:23.602Z,25.60
2024-05-09T08:52:22.585Z,25.20
2024-05-09T08:53:22.658Z,24.20
2024-05-09T08:54:22.587Z,24.30
2024-05-09T08:55:22.665Z,24.10
2024-05-09T08:56:22.553Z,23.60
2024-05-09T08:57:22.554Z,24.00
2024-05-09T08:58:22.559Z,25.60
2024-05-09T08:59:22.816Z,25.00
2024-05-09T09:00:33.361Z,27.10
2024-05-09T09:01:23.642Z,27.10
2024-05-09T09:02:22.762Z,25.50
2024-05-09T09:03:22.618Z,25.20
2024-05-09T09:04:22.579Z,24.50
2024-05-09T09:05:22.515Z,22.40
2024-05-09T09:06:22.458Z,21.00
2024-05-09T09:07:22.482Z,23.10
2024-05-09T09:08:22.428Z,22.60
2024-05-09T09:09:22.443Z,22.30
2024-05-09T09:10:29.615Z,23.40
2024-05-09T09:11:23.454Z,24.70
2024-05-09T09:12:22.393Z,24.10
2024-05-09T09:13:22.436Z,23.60
2024-05-09T09:14:22.387Z,23.70
2024-05-09T09:15:22.365Z,23.10
2024-05-09T09:16:22.503Z,24.20
2024-05-09T09:17:22.436Z,24.10
2024-05-09T09:18:22.473Z,24.40
2024-05-09T09:19:22.507Z,21.90
2024-05-09T09:20:28.762Z,22.70
2024-05-09T09:21:23.307Z,22.70
2024-05-09T09:22:22.323Z,21.40
2024-05-09T09:23:22.315Z,18.70
2024-05-09T09:24:22.281Z,19.00
2024-05-09T09:25:22.293Z,15.30
2024-05-09T09:26:22.274Z,14.10
2024-05-09T09:27:22.270Z,19.30
2024-05-09T09:28:22.334Z,22.10
2024-05-09T09:29:22.256Z,22.80
2024-05-09T09:30:34.506Z,22.70
2024-05-09T09:31:23.330Z,22.50
2024-05-09T09:32:22.728Z,22.60
2024-05-09T09:33:22.328Z,22.00
2024-05-09T09:34:22.346Z,21.60
2024-05-09T09:35:22.251Z,22.70
2024-05-09T09:36:22.176Z,20.40
2024-05-09T09:37:22.173Z,20.70
2024-05-09T09:38:22.151Z,20.40
2024-05-09T09:39:22.164Z,20.30
2024-05-09T09:40:25.518Z,20.10
2024-05-09T09:41:22.141Z,20.30
2024-05-09T09:42:22.120Z,20.10
2024-05-09T09:43:22.732Z,19.40
2024-05-09T09:44:22.104Z,19.90
2024-05-09T09:45:22.113Z,18.90
2024-05-09T09:46:22.135Z,19.40
2024-05-09T09:47:22.150Z,20.20
2024-05-09T09:48:22.808Z,19.60
2024-05-09T09:49:22.074Z,19.30
2024-05-09T09:50:27.916Z,19.50
2024-05-09T09:51:23.028Z,19.80
2024-05-09T09:52:22.228Z,19.50
2024-05-09T09:53:21.993Z,19.50
2024-05-09T09:54:22.000Z,19.50
2024-05-09T09:55:22.093Z,19.20
2024-05-09T09:56:22.008Z,19.00
2024-05-09T09:57:21.957Z,18.70
2024-05-09T09:58:22.067Z,19.60
2024-05-09T09:59:21.955Z,17.90
2024-05-09T10:00:27.205Z,17.70
2024-05-09T10:01:23.137Z,18.00
2024-05-09T10:02:22.074Z,16.90
2024-05-09T10:03:22.020Z,17.60
2024-05-09T10:04:22.036Z,17.90
2024-05-09T10:05:22.158Z,18.00
2024-05-09T10:06:21.953Z,17.40
2024-05-09T10:07:21.948Z,17.50
2024-05-09T10:08:21.880Z,15.30
2024-05-09T10:09:21.878Z,14.80
2024-05-09T10:10:29.877Z,15.50
2024-05-09T10:11:22.983Z,15.00
2024-05-09T10:12:21.911Z,15.20
2024-05-09T10:13:21.929Z,11.50
2024-05-09T10:14:21.838Z,11.70
2024-05-09T10:15:21.793Z,11.00
2024-05-09T10:16:22.141Z,11.80
2024-05-09T10:17:21.801Z,12.60
2024-05-09T10:18:21.830Z,12.20
2024-05-09T10:19:21.949Z,11.20
2024-05-09T10:20:25.422Z,10.30
2024-05-09T10:21:22.758Z,8.60
2024-05-09T10:22:21.739Z,8.50
2024-05-09T10:23:21.738Z,8.70
2024-05-09T10:24:21.725Z,6.80
2024-05-09T10:25:21.916Z,6.20
2024-05-09T10:26:21.701Z,6.10
2024-05-09T10:27:21.697Z,8.40
2024-05-09T10:28:21.742Z,9.00
2024-05-09T10:29:21.695Z,7.90
2024-05-09T10:30:29.488Z,5.80
2024-05-09T10:31:22.716Z,5.70
2024-05-09T10:32:21.728Z,5.80
2024-05-09T10:33:21.753Z,6.20
2024-05-09T10:34:21.930Z,6.30
2024-05-09T10:35:21.627Z,6.30
2024-05-09T10:36:21.686Z,6.10
2024-05-09T10:37:21.737Z,6.00
2024-05-09T10:38:21.613Z,5.50
2024-05-09T10:39:21.591Z,5.40
2024-05-09T10:40:26.600Z,5.60
2024-05-09T10:41:22.681Z,5.80
2024-05-09T10:42:21.578Z,5.70
2024-05-09T10:43:21.600Z,5.60
2024-05-09T10:44:21.540Z,5.40
2024-05-09T10:45:21.555Z,4.70
2024-05-09T10:46:21.813Z,4.30
2024-05-09T10:47:21.592Z,4.10
2024-05-09T10:48:21.594Z,3.00
2024-05-09T10:49:21.669Z,3.00
2024-05-09T10:50:28.166Z,3.10
2024-05-09T10:51:22.469Z,3.30
2024-05-09T10:52:21.510Z,2.90
2024-05-09T10:53:21.464Z,2.70
2024-05-09T10:54:21.483Z,3.30
2024-05-09T10:55:21.990Z,3.70
2024-05-09T10:56:21.456Z,3.30
2024-05-09T10:57:21.429Z,3.10
2024-05-09T10:58:21.422Z,3.30
2024-05-09T10:59:21.402Z,2.60
2024-05-09T11:00:27.706Z,2.70
2024-05-09T11:01:22.523Z,3.10
2024-05-09T11:02:21.565Z,2.60
2024-05-09T11:03:21.657Z,2.50
2024-05-09T11:04:21.534Z,2.30
2024-05-09T11:05:21.552Z,2.20
2024-05-09T11:06:21.357Z,2.20
2024-05-09T11:07:21.557Z,2.10
2024-05-09T11:08:21.309Z,2.40
2024-05-09T11:09:21.329Z,2.10
2024-05-09T11:10:27.727Z,2.10
2024-05-09T11:11:22.323Z,1.90
2024-05-09T11:12:22.839Z,2.30
2024-05-09T11:13:21.315Z,2.10
2024-05-09T11:14:21.256Z,2.20
2024-05-09T11:15:21.265Z,2.20
2024-05-09T11:16:21.691Z,2.50
2024-05-09T11:17:21.411Z,2.40
2024-05-09T11:18:24.453Z,2.70
2024-05-09T11:19:21.362Z,2.70
2024-05-09T11:20:29.079Z,2.30
2024-05-09T11:21:22.195Z,2.30
2024-05-09T11:22:21.240Z,2.40
2024-05-09T11:23:21.202Z,2.20
2024-05-09T11:24:21.177Z,2.40
2024-05-09T11:25:21.189Z,2.50
2024-05-09T11:26:21.188Z,2.30
2024-05-09T11:27:21.145Z,2.30
2024-05-09T11:28:21.260Z,2.50
2024-05-09T11:29:21.142Z,3.30
2024-05-09T11:30:26.971Z,2.50
2024-05-09T11:31:22.462Z,3.10
2024-05-09T11:32:21.167Z,3.20
2024-05-09T11:33:21.154Z,2.40
2024-05-09T11:34:21.114Z,2.70
2024-05-09T11:35:21.087Z,2.50
2024-05-09T11:36:21.068Z,2.80
2024-05-09T11:37:21.108Z,2.70
2024-05-09T11:38:21.042Z,2.40
2024-05-09T11:39:21.068Z,2.60
2024-05-09T11:40:25.574Z,2.70
2024-05-09T11:41:22.011Z,2.60
2024-05-09T11:42:21.023Z,2.50
2024-05-09T11:43:21.350Z,2.60
2024-05-09T11:44:21.009Z,2.70
2024-05-09T11:45:20.985Z,3.80
2024-05-09T11:46:21.108Z,3.40
2024-05-09T11:47:21.080Z,3.10
2024-05-09T11:48:21.482Z,2.80
2024-05-09T11:49:23.131Z,3.00
2024-05-09T11:50:27.209Z,3.20
2024-05-09T11:51:21.934Z,3.20
2024-05-09T11:52:20.969Z,3.30
2024-05-09T11:53:20.928Z,3.30
2024-05-09T11:54:20.992Z,3.10
2024-05-09T11:55:22.507Z,3.50
2024-05-09T11:56:20.903Z,3.20
2024-05-09T11:57:20.886Z,2.90
2024-05-09T11:58:21.169Z,3.70
2024-05-09T11:59:20.864Z,2.70
2024-05-09T12:00:29.435Z,3.20
2024-05-09T12:01:23.126Z,3.10
2024-05-09T12:02:20.944Z,2.70
2024-05-09T12:03:20.920Z,2.70
2024-05-09T12:04:21.197Z,2.90
2024-05-09T12:05:21.095Z,3.40
2024-05-09T12:06:20.927Z,4.20
2024-05-09T12:07:20.933Z,3.60
2024-05-09T12:08:20.777Z,3.50
2024-05-09T12:09:20.802Z,3.90
2024-05-09T12:10:26.051Z,3.60
2024-05-09T12:11:21.838Z,3.70
2024-05-09T12:12:20.759Z,3.40
2024-05-09T12:13:20.844Z,3.70
2024-05-09T12:14:20.731Z,3.90
2024-05-09T12:15:20.713Z,3.50
2024-05-09T12:16:20.887Z,3.40
2024-05-09T12:17:20.864Z,3.10
2024-05-09T12:18:20.714Z,3.10
2024-05-09T12:19:20.741Z,3.20
2024-05-09T12:20:28.584Z,3.30
2024-05-09T12:21:21.671Z,3.20
2024-05-09T12:22:20.729Z,3.70
2024-05-09T12:23:20.649Z,3.80
2024-05-09T12:24:20.656Z,3.80
2024-05-09T12:25:20.677Z,3.40
2024-05-09T12:26:20.643Z,4.00
2024-05-09T12:27:20.624Z,3.60
2024-05-09T12:28:20.689Z,3.50
2024-05-09T12:29:20.591Z,3.50
2024-05-09T12:30:32.487Z,3.20
2024-05-09T12:31:21.611Z,2.90
2024-05-09T12:32:20.655Z,3.80
2024-05-09T12:33:20.818Z,3.80
2024-05-09T12:34:20.600Z,3.30
2024-05-09T12:35:20.551Z,3.40
2024-05-09T12:36:20.530Z,3.30
2024-05-09T12:37:20.566Z,3.80
2024-05-09T12:38:20.533Z,3.50
2024-05-09T12:39:20.664Z,3.30
2024-05-09T12:40:26.865Z,3.20
2024-05-09T12:41:21.499Z,3.40
2024-05-09T12:42:27.154Z,3.60
2024-05-09T12:43:21.519Z,3.10
2024-05-09T12:44:20.475Z,3.30
2024-05-09T12:45:20.459Z,3.00
2024-05-09T12:46:20.505Z,2.90
2024-05-09T12:47:20.510Z,3.10
2024-05-09T12:48:20.583Z,2.80
2024-05-09T12:49:20.733Z,2.80
2024-05-09T12:50:29.148Z,3.40
2024-05-09T12:51:21.412Z,3.20
2024-05-09T12:52:20.470Z,3.40
2024-05-09T12:53:20.443Z,3.40
2024-05-09T12:54:20.379Z,3.30
2024-05-09T12:55:20.411Z,3.00
2024-05-09T12:56:20.375Z,3.20
2024-05-09T12:57:20.335Z,3.00
2024-05-09T12:58:20.377Z,3.40
2024-05-09T12:59:20.354Z,3.20
2024-05-09T13:00:27.428Z,2.70
2024-05-09T13:01:21.350Z,2.80
2024-05-09T13:02:20.505Z,3.00
2024-05-09T13:03:20.581Z,3.20